Terminal Aerodrome Forecast
Issued by NWS Goodland, KS

Home | Current Version | Previous Version | Text Only | Print | Product List | Glossary On
Versions: 1 2 3 4 5 6 7 8 9 10 11 12 13 14 15 16 17 18 19
000
FTUS43 KGLD 221149
TAFGLD
TAF
KGLD 221149Z 2212/2312 15015G20KT 6SM -RA OVC005
     FM221300 15015G23KT P6SM VCSH OVC005
     FM222000 15015G25KT P6SM OVC013
     FM230100 15020G25KT P6SM OVC008
     FM230200 15020G25KT 3SM BR OVC003
     FM230800 16015G25KT 1/2SM FG OVC003=

USA.gov is the U.S. government's official web portal to all federal, state and local government web resources and services.